Bookmark and Share
Track history (hours):
 

Althea

Last reported at 2014-Apr-22 10:10 UTC. Time now 2014-Apr-24 11:38 UTC.
Position N 36°29' E 014°53'.

Length 170 m; draft 10.1 m.

Type: Cargo ship. MMSI: 215047000.

NotesDate/timePositionNaut miles runAvg speedWind from/ knotsBaromVisibWave heightAir tempDewpointWater temp
2014-Apr-22 10:10N 36°29' E 014°53'712.2
2014-Apr-22 09:34N 36°29' E 014°43'1313.1
2014-Apr-22 08:34N 36°31' E 014°27'1313.5
2014-Apr-22 07:34N 36°33' E 014°11'1313.3
2014-Apr-22 06:34N 36°37' E 013°55'1413.6
2014-Apr-22 05:33N 36°41' E 013°39'1413.7
2014-Apr-22 04:33N 36°44' E 013°22'1413.8
2014-Apr-22 03:33N 36°47' E 013°05'2013.8
2014-Apr-22 02:07N 36°52' E 012°41'1214.2
2014-Apr-22 01:15N 36°55' E 012°26'1014.1
2014-Apr-22 00:34N 36°57' E 012°15'1514.5
2014-Apr-21 23:32N 37°01' E 011°57'1414.1
2014-Apr-21 22:33N 37°06' E 011°40'1313.1
2014-Apr-21 21:34N 37°14' E 011°28'1413.8
2014-Apr-21 20:33N 37°21' E 011°13'1413.9
2014-Apr-21 19:33N 37°26' E 010°56'1414.3
2014-Apr-21 18:33N 37°31' E 010°39'1514.5
2014-Apr-21 17:30N 37°33' E 010°21'  
2014-Apr-19 11:16N 36°02' W 005°05'1013.3
2014-Apr-19 10:33N 36°03' W 005°16'8 7.3
2014-Apr-19 09:32N 36°09' W 005°22'0 0.1
2014-Apr-19 08:32N 36°09' W 005°22'0 0.0
2014-Apr-19 07:32N 36°09' W 005°22'0 0.0
2014-Apr-19 06:32N 36°09' W 005°22'0 0.0
2014-Apr-19 05:32N 36°09' W 005°22'0 0.2
2014-Apr-19 04:32N 36°09' W 005°22'5 5.5
2014-Apr-19 03:33N 36°04' W 005°21'1110.8
2014-Apr-19 02:34N 35°57' W 005°31'1312.6
2014-Apr-19 01:33N 35°53' W 005°46'  

Dump ship's entire track history

sailing weather and tide predictions

Althea — 9HAQ7 — position and weather